Dawn Merchant — MYIL6 — position and weather

sailwx.info

Track history (hours):
 
Tides and Currents Weather Stations Pressure Air Temp Water Temp Dewpoint Dewpoint Depression Visibility Wind Speed Wind Dir Waves Ship Positions

Dawn Merchant

Operator: Norfolk Line

Last reported at 2018-Nov-11 02:29 UTC. Time now 2018-Nov-14 03:35 UTC.
Position S 41°16' E 174°47'.

Length 180 m; draft 5.8 m.

Type: Passenger vessel. MMSI: 232197000.

Date/timePositionNaut miles runAvg speedWind from/ knotsBaromVisibWave heightAir tempDewpointWater temp
2018-Nov-11 02:29S 41°16' E 174°47'0 0.0
2018-Nov-11 01:47S 41°16' E 174°47'0 0.0
2018-Nov-11 01:10S 41°16' E 174°47'0 0.0
2018-Nov-11 00:58S 41°16' E 174°47'0 0.0
2018-Nov-11 00:28S 41°16' E 174°47'0 0.0
2018-Nov-10 23:58S 41°16' E 174°47'0 0.0
2018-Nov-10 23:21S 41°16' E 174°47'0 0.0
2018-Nov-10 22:57S 41°16' E 174°47'0 0.0
2018-Nov-10 22:27S 41°16' E 174°47'0 0.0
2018-Nov-10 21:56S 41°16' E 174°47'0 0.0
2018-Nov-10 21:32S 41°16' E 174°47'0 0.0
2018-Nov-10 21:02S 41°16' E 174°47'0 0.0
2018-Nov-10 20:26S 41°16' E 174°47'1 2.5
2018-Nov-10 20:00S 41°16' E 174°49'1 1.0
2018-Nov-10 19:31S 41°16' E 174°49'0 0.1
2018-Nov-10 19:01S 41°16' E 174°49'0 0.0
2018-Nov-10 18:30S 41°16' E 174°49'0 0.0
2018-Nov-10 17:57S 41°16' E 174°49'0 0.0
2018-Nov-10 17:12S 41°16' E 174°49'0 0.0
2018-Nov-10 17:00S 41°16' E 174°49'0 0.0
2018-Nov-10 16:32S 41°16' E 174°49'0 0.0
2018-Nov-10 16:02S 41°16' E 174°49'0 0.0
2018-Nov-10 15:32S 41°16' E 174°49'0 0.0
2018-Nov-10 15:01S 41°16' E 174°49'0 0.7
2018-Nov-10 14:32S 41°16' E 174°49'1 1.9
2018-Nov-10 13:51S 41°16' E 174°47'0 0.0
2018-Nov-10 13:32S 41°16' E 174°47'0 0.0
2018-Nov-10 13:02S 41°16' E 174°47'0 0.4
2018-Nov-10 12:33S 41°16' E 174°47'610.8
2018-Nov-10 11:59S 41°22' E 174°50'716.6
2018-Nov-10 11:32S 41°23' E 174°41'1019.1
2018-Nov-10 11:02S 41°19' E 174°29'918.1
2018-Nov-10 10:32S 41°13' E 174°20'713.1
2018-Nov-10 10:03S 41°15' E 174°11'612.1
2018-Nov-10 09:32S 41°15' E 174°03'3 6.3
2018-Nov-10 09:02S 41°17' E 174°00'0 0.0
2018-Nov-10 08:32S 41°17' E 174°00'0 0.0
2018-Nov-10 08:02S 41°17' E 174°00'0 0.0
2018-Nov-10 07:32S 41°17' E 174°00'0 0.4
2018-Nov-10 07:02S 41°17' E 174°01'510.1
2018-Nov-10 06:32S 41°14' E 174°06'713.3
2018-Nov-10 06:02S 41°14' E 174°15'714.1
2018-Nov-10 05:32S 41°15' E 174°24'816.8
2018-Nov-10 05:02S 41°20' E 174°34'816.6
2018-Nov-10 04:32S 41°23' E 174°44'713.2
2018-Nov-10 03:59S 41°18' E 174°51'3 6.9
2018-Nov-10 03:30S 41°16' E 174°47'0 0.0
2018-Nov-10 03:00S 41°16' E 174°47'0 0.0
2018-Nov-10 02:30S 41°16' E 174°47'0 0.0
2018-Nov-10 01:59S 41°16' E 174°47'0 0.0
2018-Nov-10 01:29S 41°16' E 174°47'0 0.0
2018-Nov-10 01:02S 41°16' E 174°47'0 0.0
2018-Nov-10 00:29S 41°16' E 174°47'0 0.0
2018-Nov-09 23:46S 41°16' E 174°47'0 0.0
2018-Nov-09 23:32S 41°16' E 174°47'4 8.0
2018-Nov-09 22:59S 41°19' E 174°51'614.6
2018-Nov-09 22:32S 41°24' E 174°45'816.2
2018-Nov-09 22:02S 41°21' E 174°35'917.4
2018-Nov-09 21:32S 41°16' E 174°25'713.8
2018-Nov-09 21:02S 41°14' E 174°16'611.7
2018-Nov-09 20:32S 41°14' E 174°08'713.5
2018-Nov-09 20:02S 41°17' E 174°01'0 0.3
2018-Nov-09 19:30S 41°17' E 174°00'0 0.0
2018-Nov-09 19:02S 41°17' E 174°00'0 0.0
2018-Nov-09 18:32S 41°17' E 174°00'0 0.9
2018-Nov-09 18:03S 41°17' E 174°01'713.9
2018-Nov-09 17:33S 41°13' E 174°09'713.2
2018-Nov-09 17:02S 41°13' E 174°18'1019.5
2018-Nov-09 16:32S 41°18' E 174°29'1020.1
2018-Nov-09 16:02S 41°23' E 174°41'916.5
2018-Nov-09 15:31S 41°19' E 174°51'4 9.0
2018-Nov-09 15:02S 41°16' E 174°47'0 0.0
2018-Nov-09 14:27S 41°16' E 174°47'0 0.0
2018-Nov-09 14:02S 41°16' E 174°47'0 0.0
2018-Nov-09 12:46S 41°16' E 174°47'0 0.7
2018-Nov-09 12:32S 41°16' E 174°47'611.4
2018-Nov-09 12:00S 41°22' E 174°50'816.8
2018-Nov-09 11:32S 41°24' E 174°40'917.6
2018-Nov-09 11:02S 41°19' E 174°31'918.0
2018-Nov-09 10:33S 41°14' E 174°21'611.9
2018-Nov-09 10:02S 41°14' E 174°13'612.5
2018-Nov-09 09:32S 41°14' E 174°04'4 7.7
2018-Nov-09 09:02S 41°17' E 174°00'0 0.0
2018-Nov-09 08:33S 41°17' E 174°00'0 0.0
2018-Nov-09 08:03S 41°17' E 174°00'0 0.0
2018-Nov-09 07:33S 41°17' E 174°00'1 2.2
2018-Nov-09 07:03S 41°16' E 174°01'713.3
2018-Nov-09 06:33S 41°14' E 174°09'713.1
2018-Nov-09 06:02S 41°13' E 174°18'917.2
2018-Nov-09 05:32S 41°17' E 174°28'917.5
2018-Nov-09 05:02S 41°22' E 174°38'1015.4
2018-Nov-09 04:22S 41°19' E 174°51'412.5
2018-Nov-09 04:01S 41°16' E 174°47'0 0.3
2018-Nov-09 03:27S 41°16' E 174°47'0 0.0
2018-Nov-09 02:58S 41°16' E 174°47'0 0.0
2018-Nov-09 02:30S 41°16' E 174°47'0 0.0
2018-Nov-09 02:00S 41°16' E 174°47'0 0.0
2018-Nov-09 01:27S 41°16' E 174°47'0 0.0
2018-Nov-09 00:57S 41°16' E 174°47'0 0.0
2018-Nov-09 00:32S 41°16' E 174°47'0 0.0
2018-Nov-09 00:02S 41°16' E 174°47'0 0.0
2018-Nov-08 23:32S 41°16' E 174°47'4 8.3
2018-Nov-08 23:01S 41°19' E 174°51'612.9
2018-Nov-08 22:32S 41°24' E 174°46'815.9
2018-Nov-08 22:02S 41°22' E 174°36'816.2
2018-Nov-08 21:32S 41°17' E 174°27'816.3
2018-Nov-08 21:02S 41°13' E 174°18'713.8
2018-Nov-08 20:32S 41°15' E 174°09'612.3
2018-Nov-08 20:02S 41°16' E 174°01'1 2.6
2018-Nov-08 19:32S 41°17' E 174°00'0 0.0
2018-Nov-08 19:01S 41°17' E 174°00'0 0.0
2018-Nov-08 18:31S 41°17' E 174°00'0 0.0
2018-Nov-08 18:02S 41°17' E 174°00'3 6.8
2018-Nov-08 17:32S 41°15' E 174°03'713.4
2018-Nov-08 17:02S 41°14' E 174°12'714.7
2018-Nov-08 16:32S 41°14' E 174°22'917.4
2018-Nov-08 16:02S 41°19' E 174°32'917.8
2018-Nov-08 15:33S 41°23' E 174°43'813.4
2018-Nov-08 14:55S 41°17' E 174°50'3 6.9
2018-Nov-08 14:32S 41°16' E 174°47'0 0.0
2018-Nov-08 14:02S 41°16' E 174°47'0 0.0
2018-Nov-08 13:22S 41°16' E 174°47'0 0.0
2018-Nov-08 12:57S 41°16' E 174°47'0 0.0
2018-Nov-08 12:32S 41°16' E 174°47'4 7.8
2018-Nov-08 11:58S 41°19' E 174°51'615.0
2018-Nov-08 11:32S 41°24' E 174°45'1020.3
2018-Nov-08 11:02S 41°20' E 174°32'1019.0
2018-Nov-08 10:32S 41°15' E 174°21'713.1
2018-Nov-08 10:02S 41°15' E 174°13'713.1
2018-Nov-08 09:32S 41°15' E 174°04'4 6.8
2018-Nov-08 09:00S 41°17' E 174°00'0 0.0
2018-Nov-08 08:32S 41°17' E 174°00'0 0.0
2018-Nov-08 08:02S 41°17' E 174°00'0 0.0
2018-Nov-08 07:32S 41°17' E 174°00'0 0.3
2018-Nov-08 07:00S 41°17' E 174°01'511.4
2018-Nov-08 06:32S 41°14' E 174°06'713.3
2018-Nov-08 06:02S 41°14' E 174°15'713.5
2018-Nov-08 05:32S 41°15' E 174°24'815.5
2018-Nov-08 05:02S 41°19' E 174°33'917.6
2018-Nov-08 04:32S 41°23' E 174°43'813.2
2018-Nov-08 03:57S 41°17' E 174°50'3 5.4
2018-Nov-08 03:28S 41°16' E 174°47'0 0.0
2018-Nov-08 02:57S 41°16' E 174°47'0 0.0
2018-Nov-08 02:30S 41°16' E 174°47'0 0.0
2018-Nov-08 01:57S 41°16' E 174°47'0 0.0
2018-Nov-08 01:30S 41°16' E 174°47'0 0.0
2018-Nov-08 01:02S 41°16' E 174°47'0 0.0
2018-Nov-08 00:32S 41°16' E 174°47'0 0.0
2018-Nov-08 00:23S 41°16' E 174°47'0 0.0
2018-Nov-07 23:56S 41°16' E 174°47'0 0.0
2018-Nov-07 23:32S 41°16' E 174°47'4 8.0
2018-Nov-07 22:59S 41°19' E 174°51'613.1
2018-Nov-07 22:33S 41°24' E 174°46'816.7
2018-Nov-07 22:03S 41°22' E 174°35'917.6
2018-Nov-07 21:33S 41°17' E 174°26'714.8
2018-Nov-07 21:03S 41°14' E 174°17'612.8
2018-Nov-07 20:32S 41°14' E 174°08'713.5
2018-Nov-07 20:02S 41°17' E 174°00'0 0.0
2018-Nov-07 19:31S 41°17' E 174°00'0 0.0
2018-Nov-07 19:00S 41°17' E 174°00'0 0.0
2018-Nov-07 18:33S 41°17' E 174°00'4 8.4
2018-Nov-07 18:03S 41°14' E 174°05'713.8
2018-Nov-07 17:33S 41°14' E 174°14'815.3
2018-Nov-07 17:03S 41°15' E 174°24'1020.9
2018-Nov-07 16:33S 41°21' E 174°36'1214.6
2018-Nov-07 15:44S 41°17' E 174°50'211.9
2018-Nov-07 15:32S 41°16' E 174°47'0 0.3
2018-Nov-07 15:01S 41°16' E 174°47'0 0.0
2018-Nov-07 14:32S 41°16' E 174°47'0 0.0
2018-Nov-07 14:01S 41°16' E 174°47'0 0.0
2018-Nov-07 13:32S 41°16' E 174°47'0 0.0
2018-Nov-07 13:02S 41°16' E 174°47'0 0.3
2018-Nov-07 12:32S 41°16' E 174°47'610.4
2018-Nov-07 11:57S 41°22' E 174°50'717.4
2018-Nov-07 11:33S 41°23' E 174°41'1121.3
2018-Nov-07 11:03S 41°18' E 174°29'918.3
2018-Nov-07 10:33S 41°13' E 174°19'815.2
2018-Nov-07 10:03S 41°15' E 174°09'612.0
2018-Nov-07 09:32S 41°16' E 174°01'1 2.8
2018-Nov-07 09:02S 41°17' E 174°00'0 0.0
2018-Nov-07 08:32S 41°17' E 174°00'0 0.0
2018-Nov-07 08:02S 41°17' E 174°00'0 0.0
2018-Nov-07 07:32S 41°17' E 174°00'2 3.2
2018-Nov-07 07:02S 41°16' E 174°01'612.3
2018-Nov-07 06:32S 41°14' E 174°09'714.9
2018-Nov-07 06:02S 41°13' E 174°19'816.1
2018-Nov-07 05:32S 41°17' E 174°28'917.3
2018-Nov-07 05:02S 41°22' E 174°38'1113.1
2018-Nov-07 04:13S 41°17' E 174°51'3 0.6
2018-Nov-06 23:25S 41°16' E 174°47'0 1.1
2018-Nov-06 23:03S 41°16' E 174°48'110.6
2018-Nov-06 23:00S 41°16' E 174°48'9 9.4
2018-Nov-06 22:01S 41°23' E 174°39'918.3
2018-Nov-06 21:31S 41°18' E 174°29'817.8
2018-Nov-06 21:04S 41°14' E 174°20'117.7
2018-Nov-06 21:01S 41°13' E 174°20'714.4
2018-Nov-06 20:31S 41°15' E 174°10'612.9
2018-Nov-06 20:03S 41°15' E 174°03'114.6
2018-Nov-06 20:01S 41°15' E 174°02'2 4.0
2018-Nov-06 19:30S 41°17' E 174°00'0 0.0
2018-Nov-06 19:03S 41°17' E 174°00'0 0.0
2018-Nov-06 19:00S 41°17' E 174°00'0 0.0
2018-Nov-06 18:30S 41°17' E 174°00'0 0.0
2018-Nov-06 18:03S 41°17' E 174°00'0 0.0
2018-Nov-06 18:00S 41°17' E 174°00'4 8.0
2018-Nov-06 17:30S 41°14' E 174°04'612.5
2018-Nov-06 17:03S 41°14' E 174°12'116.4
2018-Nov-06 17:00S 41°14' E 174°13'714.1
2018-Nov-06 16:30S 41°15' E 174°22'715.9
2018-Nov-06 16:03S 41°18' E 174°30'115.9
2018-Nov-06 16:00S 41°19' E 174°31'816.3
2018-Nov-06 15:30S 41°23' E 174°41'814.9
2018-Nov-06 14:56S 41°19' E 174°51'410.1
2018-Nov-06 14:30S 41°16' E 174°47'0 0.0
2018-Nov-06 14:03S 41°16' E 174°47'0 0.0
2018-Nov-06 13:59S 41°16' E 174°47'0 0.0
2018-Nov-06 13:31S 41°16' E 174°47'0 0.0
2018-Nov-06 13:03S 41°16' E 174°47'0 0.0
2018-Nov-06 13:00S 41°16' E 174°47'0 0.0
2018-Nov-06 12:30S 41°16' E 174°47'3 6.1
2018-Nov-06 12:03S 41°17' E 174°51'115.0
2018-Nov-06 11:59S 41°17' E 174°51'713.9
2018-Nov-06 11:30S 41°24' E 174°48'818.3
2018-Nov-06 11:03S 41°22' E 174°37'121.1
2018-Nov-06 11:00S 41°22' E 174°36'918.5
2018-Nov-06 10:30S 41°17' E 174°25'715.4
2018-Nov-06 10:03S 41°13' E 174°18'117.7
2018-Nov-06 10:00S 41°14' E 174°17'713.6
2018-Nov-06 09:30S 41°14' E 174°08'613.6
2018-Nov-06 09:03S 41°17' E 174°01'0 4.0
2018-Nov-06 09:00S 41°17' E 174°00'0 0.0
2018-Nov-06 08:30S 41°17' E 174°00'0 0.0
2018-Nov-06 08:03S 41°17' E 174°00'0 0.0
2018-Nov-06 08:00S 41°17' E 174°00'0 0.0
2018-Nov-06 07:30S 41°17' E 174°00'0 0.2
2018-Nov-06 07:03S 41°17' E 174°00'0 1.3
2018-Nov-06 07:00S 41°17' E 174°01'611.4
2018-Nov-06 06:30S 41°14' E 174°07'612.9
2018-Nov-06 06:03S 41°14' E 174°15'114.9
2018-Nov-06 06:00S 41°14' E 174°15'713.3
2018-Nov-06 05:30S 41°15' E 174°24'715.8
2018-Nov-06 05:03S 41°19' E 174°32'116.9
2018-Nov-06 05:00S 41°20' E 174°33'918.1
2018-Nov-06 04:30S 41°23' E 174°44'714.0
2018-Nov-06 04:00S 41°17' E 174°51'3 5.8
2018-Nov-06 03:30S 41°16' E 174°47'0 0.0
2018-Nov-06 03:03S 41°16' E 174°47'0 0.0
2018-Nov-06 03:00S 41°16' E 174°47'0 0.0
2018-Nov-06 02:30S 41°16' E 174°47'0 0.0
2018-Nov-06 02:03S 41°16' E 174°47'0 0.0
2018-Nov-06 02:00S 41°16' E 174°47'0 0.0
2018-Nov-06 01:30S 41°16' E 174°47'0 0.0
2018-Nov-06 01:03S 41°16' E 174°47'0 0.0
2018-Nov-05 23:30S 41°16' E 174°47'2 5.1
2018-Nov-05 23:03S 41°16' E 174°50'115.9
2018-Nov-05 23:00S 41°17' E 174°51'714.2
2018-Nov-05 22:30S 41°23' E 174°48'817.5
2018-Nov-05 22:03S 41°23' E 174°38'118.5
2018-Nov-05 22:00S 41°22' E 174°37'816.5
2018-Nov-05 21:30S 41°18' E 174°27'715.4
2018-Nov-05 21:03S 41°13' E 174°20'118.7
2018-Nov-05 21:00S 41°13' E 174°19'815.3
2018-Nov-05 20:31S 41°15' E 174°09'612.6
2018-Nov-05 20:03S 41°15' E 174°02'115.2
2018-Nov-05 20:00S 41°16' E 174°01'1 2.7
2018-Nov-05 19:28S 41°17' E 174°00'0 0.0
2018-Nov-05 19:01S 41°17' E 174°00'0 0.0
2018-Nov-05 18:58S 41°17' E 174°00'0 0.0
2018-Nov-05 18:30S 41°17' E 174°00'0 0.0
2018-Nov-05 18:03S 41°17' E 174°00'0 0.0
2018-Nov-05 18:00S 41°17' E 174°00'1 1.7
2018-Nov-05 17:31S 41°16' E 174°01'613.7
2018-Nov-05 17:04S 41°14' E 174°08'113.4
2018-Nov-05 17:00S 41°14' E 174°09'612.9
2018-Nov-05 16:30S 41°13' E 174°18'614.2
2018-Nov-05 16:03S 41°16' E 174°25'113.9
2018-Nov-05 16:00S 41°16' E 174°26'714.6
2018-Nov-05 15:30S 41°20' E 174°34'817.4
2018-Nov-05 15:03S 41°23' E 174°44'117.4
2018-Nov-05 15:00S 41°23' E 174°45'713.5
2018-Nov-05 14:30S 41°17' E 174°51'3 6.6
2018-Nov-05 14:03S 41°16' E 174°47'0 0.0
2018-Nov-05 13:30S 41°16' E 174°47'0 0.0
2018-Nov-05 13:03S 41°16' E 174°47'0 0.0
2018-Nov-05 13:00S 41°16' E 174°47'0 0.0
2018-Nov-05 12:30S 41°16' E 174°47'0 0.0
2018-Nov-05 12:03S 41°16' E 174°47'0 0.0
2018-Nov-05 12:00S 41°16' E 174°47'0 0.0
2018-Nov-05 11:30S 41°16' E 174°47'0 0.0
2018-Nov-05 11:03S 41°16' E 174°47'0 0.0
2018-Nov-05 11:00S 41°16' E 174°47'0 0.0
2018-Nov-05 10:30S 41°16' E 174°47'0 0.0
2018-Nov-05 10:03S 41°16' E 174°47'0 0.0
2018-Nov-05 10:00S 41°16' E 174°47'0 0.0
2018-Nov-05 09:30S 41°16' E 174°47'0 0.0
2018-Nov-05 09:03S 41°16' E 174°47'0 0.0
2018-Nov-05 09:00S 41°16' E 174°47'0 0.0
2018-Nov-05 08:30S 41°16' E 174°47'0 0.0
2018-Nov-05 08:03S 41°16' E 174°47'0 0.0
2018-Nov-05 08:00S 41°16' E 174°47'1 1.3
2018-Nov-05 07:30S 41°16' E 174°48'0 0.7
2018-Nov-05 07:03S 41°17' E 174°48'0 0.4
2018-Nov-05 07:00S 41°17' E 174°48'0 0.1
2018-Nov-05 06:30S 41°17' E 174°48'0 0.1
2018-Nov-05 06:03S 41°17' E 174°48'0 0.4
2018-Nov-05 06:00S 41°17' E 174°48'0 0.1
2018-Nov-05 05:30S 41°17' E 174°48'0 0.1
2018-Nov-05 05:03S 41°17' E 174°48'0 0.3
2018-Nov-05 05:00S 41°17' E 174°48'0 0.1
2018-Nov-05 04:30S 41°17' E 174°48'1 1.4
2018-Nov-05 04:03S 41°16' E 174°47'0 4.4
2018-Nov-05 04:00S 41°16' E 174°47'0 0.1
2018-Nov-05 03:25S 41°16' E 174°47'0 0.0
2018-Nov-05 02:59S 41°16' E 174°47'0 0.0
2018-Nov-05 02:29S 41°16' E 174°47'0 0.0
2018-Nov-05 01:59S 41°16' E 174°47'0 0.0
2018-Nov-05 01:28S 41°16' E 174°47'0 0.0
2018-Nov-05 00:52S 41°16' E 174°47'0 0.0
2018-Nov-05 00:28S 41°16' E 174°47'0 0.0
2018-Nov-04 23:57S 41°16' E 174°47'0 0.0
2018-Nov-04 23:21S 41°16' E 174°47'0 0.0
2018-Nov-04 22:51S 41°16' E 174°47'0 0.0
2018-Nov-04 22:30S 41°16' E 174°47'0 0.0
2018-Nov-04 22:02S 41°16' E 174°47'0 0.0
2018-Nov-04 21:56S 41°16' E 174°47'0 0.0
2018-Nov-04 21:26S 41°16' E 174°47'0 0.0
2018-Nov-04 21:02S 41°16' E 174°47'0 0.0
2018-Nov-04 20:37S 41°16' E 174°47'0 0.0
2018-Nov-04 20:25S 41°16' E 174°47'1 2.7
2018-Nov-04 20:03S 41°17' E 174°48'0 5.4
2018-Nov-04 20:00S 41°17' E 174°48'0 0.4
2018-Nov-04 19:25S 41°17' E 174°48'0 0.0
2018-Nov-04 19:00S 41°17' E 174°48'0 0.0
2018-Nov-04 18:30S 41°17' E 174°48'0 0.0
2018-Nov-04 18:03S 41°17' E 174°48'0 0.0
2018-Nov-04 18:00S 41°17' E 174°48'0 0.1
2018-Nov-04 17:02S 41°17' E 174°48'0 0.1
2018-Nov-04 16:59S 41°17' E 174°48'1 2.0
2018-Nov-04 16:30S 41°16' E 174°47'0 0.0
2018-Nov-04 16:03S 41°16' E 174°47'0 0.0
2018-Nov-04 15:59S 41°16' E 174°47'0 0.1
2018-Nov-04 15:29S 41°16' E 174°47'6 8.9
2018-Nov-04 14:46S 41°22' E 174°50'311.4
2018-Nov-04 14:30S 41°24' E 174°47'613.7
2018-Nov-04 14:04S 41°23' E 174°39'111.2
2018-Nov-04 14:01S 41°23' E 174°38'612.9
2018-Nov-04 13:30S 41°19' E 174°31'613.1
2018-Nov-04 13:04S 41°16' E 174°24'112.8
2018-Nov-04 13:01S 41°15' E 174°24'611.2
2018-Nov-04 12:31S 41°14' E 174°17'612.5
2018-Nov-04 12:03S 41°14' E 174°09'112.6
2018-Nov-04 12:00S 41°14' E 174°09'612.6
2018-Nov-04 11:31S 41°16' E 174°01'1 2.6
2018-Nov-04 11:04S 41°17' E 174°00'0 0.0
2018-Nov-04 11:01S 41°17' E 174°00'0 0.0
2018-Nov-04 10:30S 41°17' E 174°00'1 2.9
2018-Nov-04 10:03S 41°16' E 174°01'115.1
2018-Nov-04 10:00S 41°15' E 174°02'612.1
2018-Nov-04 09:31S 41°15' E 174°10'612.8
2018-Nov-04 09:03S 41°13' E 174°17'113.1
2018-Nov-04 09:00S 41°13' E 174°18'715.0
2018-Nov-04 08:30S 41°17' E 174°26'715.8
2018-Nov-04 08:03S 41°20' E 174°34'115.2
2018-Nov-04 08:00S 41°21' E 174°35'714.4
2018-Nov-04 07:30S 41°23' E 174°45'713.2
2018-Nov-04 06:58S 41°17' E 174°50'3 4.8
2018-Nov-04 06:25S 41°16' E 174°47'0 0.0
2018-Nov-04 06:01S 41°16' E 174°47'0 0.0
2018-Nov-04 05:55S 41°16' E 174°47'0 0.5
2018-Nov-04 05:31S 41°16' E 174°47'0 0.0
2018-Nov-04 05:03S 41°16' E 174°47'0 0.0
2018-Nov-04 05:00S 41°16' E 174°47'0 0.0
2018-Nov-04 04:30S 41°16' E 174°47'0 0.0
2018-Nov-04 04:03S 41°16' E 174°47'0 0.0
2018-Nov-04 04:00S 41°16' E 174°47'0 0.0
2018-Nov-04 03:29S 41°16' E 174°47'0 0.0
2018-Nov-04 03:02S 41°16' E 174°47'0 0.0
2018-Nov-04 02:59S 41°16' E 174°47'0 0.0
2018-Nov-04 02:23S 41°16' E 174°47'0 0.0
2018-Nov-04 02:02S 41°16' E 174°47'0 0.0
2018-Nov-04 01:55S 41°16' E 174°47'0 0.0
2018-Nov-04 01:28S 41°16' E 174°47'0 0.0
2018-Nov-04 01:01S 41°16' E 174°47'0 0.0
2018-Nov-04 00:58S 41°16' E 174°47'0 0.0
2018-Nov-04 00:28S 41°16' E 174°47'0 0.0
2018-Nov-03 23:57S 41°16' E 174°47'0 0.0
2018-Nov-03 23:27S 41°16' E 174°47'0 0.0
2018-Nov-03 22:57S 41°16' E 174°47'0 0.0
2018-Nov-03 22:26S 41°16' E 174°47'0 0.0
2018-Nov-03 20:28S 41°16' E 174°47'0 0.0
2018-Nov-03 20:01S 41°16' E 174°47'0 0.0
2018-Nov-03 19:58S 41°16' E 174°47'0 0.0
2018-Nov-03 19:28S 41°16' E 174°47'0 0.0
2018-Nov-03 19:00S 41°16' E 174°47'0 0.0
2018-Nov-03 18:30S 41°16' E 174°47'0 0.0
2018-Nov-03 18:03S 41°16' E 174°47'0 0.0
2018-Nov-03 18:00S 41°16' E 174°47'0 0.0
2018-Nov-03 17:29S 41°16' E 174°47'0 0.0
2018-Nov-03 16:59S 41°16' E 174°47'0 0.0
2018-Nov-03 16:29S 41°16' E 174°47'0 0.0
2018-Nov-03 15:59S 41°16' E 174°47'0 0.0
2018-Nov-03 15:28S 41°16' E 174°47'0 0.0
2018-Nov-03 15:01S 41°16' E 174°47'0 0.0
2018-Nov-03 14:58S 41°16' E 174°47'0 0.0
2018-Nov-03 14:28S 41°16' E 174°47'0 0.0
2018-Nov-03 14:03S 41°16' E 174°47'0 0.0
2018-Nov-03 14:00S 41°16' E 174°47'0 0.4
2018-Nov-03 13:30S 41°16' E 174°47'0 0.0
2018-Nov-03 12:54S 41°16' E 174°47'0 0.0
2018-Nov-03 12:30S 41°16' E 174°47'3 6.6
2018-Nov-03 12:03S 41°17' E 174°51'1 0.1
2018-Nov-03 03:57S 41°17' E 174°50'3 5.8
2018-Nov-03 03:30S 41°16' E 174°47'0 0.0
2018-Nov-03 03:03S 41°16' E 174°47'0 0.0
2018-Nov-03 03:00S 41°16' E 174°47'0 0.0
2018-Nov-03 02:30S 41°16' E 174°47'0 0.0
2018-Nov-03 02:03S 41°16' E 174°47'0 0.0
2018-Nov-03 02:00S 41°16' E 174°47'0 0.0
2018-Nov-03 01:30S 41°16' E 174°47'0 0.0
2018-Nov-03 01:03S 41°16' E 174°47'0 0.0
2018-Nov-03 01:00S 41°16' E 174°47'0 0.0
2018-Nov-03 00:30S 41°16' E 174°47'0 0.0
2018-Nov-03 00:03S 41°16' E 174°47'0 0.0
2018-Nov-03 00:00S 41°16' E 174°47'0 0.0
2018-Nov-02 23:30S 41°16' E 174°47'2 5.3
2018-Nov-02 23:03S 41°16' E 174°50'115.3
2018-Nov-02 22:59S 41°17' E 174°51'18 2.5
2018-Nov-02 15:49S 41°17' E 174°28'413.1
2018-Nov-02 15:31S 41°19' E 174°32'715.7
2018-Nov-02 15:04S 41°23' E 174°41'116.7
2018-Nov-02 15:01S 41°23' E 174°42'814.5
2018-Nov-02 14:28S 41°19' E 174°51'4 9.5
2018-Nov-02 14:00S 41°16' E 174°47'0 0.0
2018-Nov-02 13:26S 41°16' E 174°47'0 0.0
2018-Nov-02 13:03S 41°16' E 174°47'0 0.0
2018-Nov-02 13:00S 41°16' E 174°47'0 0.0
2018-Nov-02 12:30S 41°16' E 174°47'2 3.9
2018-Nov-02 12:03S 41°16' E 174°49'114.9
2018-Nov-02 11:59S 41°17' E 174°51'714.4
2018-Nov-02 11:31S 41°23' E 174°49'714.7
2018-Nov-02 11:04S 41°23' E 174°41'116.1
2018-Nov-02 11:00S 41°23' E 174°40'917.9
2018-Nov-02 10:30S 41°19' E 174°29'817.2
2018-Nov-02 10:03S 41°14' E 174°21'116.0
2018-Nov-02 10:01S 41°14' E 174°20'713.5
2018-Nov-02 09:30S 41°15' E 174°11'612.8
2018-Nov-02 09:03S 41°15' E 174°03'115.1
2018-Nov-02 09:00S 41°15' E 174°02'3 5.2
2018-Nov-02 08:30S 41°17' E 174°00'0 0.0
2018-Nov-02 08:03S 41°17' E 174°00'0 0.0
2018-Nov-02 08:00S 41°17' E 174°00'0 0.0
2018-Nov-02 07:30S 41°17' E 174°00'0 0.3
2018-Nov-02 07:03S 41°17' E 174°01'0 0.4
2018-Nov-02 07:00S 41°17' E 174°01'612.3
2018-Nov-02 06:31S 41°14' E 174°07'511.9
2018-Nov-02 06:03S 41°14' E 174°15'113.6
2018-Nov-02 06:00S 41°14' E 174°15'612.4
2018-Nov-02 05:31S 41°15' E 174°24'817.3
2018-Nov-02 05:03S 41°19' E 174°32'117.4
2018-Nov-02 05:01S 41°20' E 174°33'816.7
2018-Nov-02 04:30S 41°23' E 174°44'813.4
2018-Nov-02 03:56S 41°17' E 174°50'2 3.8
2018-Nov-02 03:21S 41°16' E 174°47'0 0.0
2018-Nov-02 03:03S 41°16' E 174°47'0 0.0
2018-Nov-02 02:51S 41°16' E 174°47'0 0.0
2018-Nov-02 02:21S 41°16' E 174°47'0 0.0
2018-Nov-02 01:56S 41°16' E 174°47'0 0.0
2018-Nov-02 01:26S 41°16' E 174°47'0 0.0
2018-Nov-02 01:02S 41°16' E 174°47'0 0.0
2018-Nov-02 00:50S 41°16' E 174°47'0 0.0
2018-Nov-02 00:32S 41°16' E 174°47'0 0.0
2018-Nov-02 00:10S 41°16' E 174°47'0 0.0
2018-Nov-02 00:01S 41°16' E 174°47'0 0.0
2018-Nov-01 23:52S 41°16' E 174°47'0 0.0
2018-Nov-01 23:30S 41°16' E 174°47'4 7.7
2018-Nov-01 22:56S 41°19' E 174°51'512.4
2018-Nov-01 22:30S 41°23' E 174°47'716.6
2018-Nov-01 22:03S 41°23' E 174°37'116.8
2018-Nov-01 22:00S 41°22' E 174°36'714.4
2018-Nov-01 21:30S 41°20' E 174°27'715.5
2018-Nov-01 21:03S 41°15' E 174°21'117.4
2018-Nov-01 21:00S 41°14' E 174°20'713.3
2018-Nov-01 20:30S 41°15' E 174°12'612.9
2018-Nov-01 20:03S 41°15' E 174°04'115.0
2018-Nov-01 20:00S 41°15' E 174°03'3 5.7
2018-Nov-01 19:31S 41°17' E 174°00'0 0.0
2018-Nov-01 19:04S 41°17' E 174°00'0 0.0
2018-Nov-01 19:01S 41°17' E 174°00'0 0.0
2018-Nov-01 18:31S 41°17' E 174°00'0 0.0
2018-Nov-01 18:04S 41°17' E 174°00'0 0.0
2018-Nov-01 18:01S 41°17' E 174°00'2 3.4
2018-Nov-01 17:30S 41°16' E 174°02'613.6
2018-Nov-01 17:03S 41°14' E 174°09'113.9
2018-Nov-01 17:01S 41°14' E 174°09'612.7
2018-Nov-01 16:31S 41°13' E 174°18'716.1
2018-Nov-01 16:04S 41°16' E 174°26'119.0
2018-Nov-01 16:01S 41°17' E 174°27'1019.8
2018-Nov-01 15:31S 41°22' E 174°38'1015.9
2018-Nov-01 14:53S 41°19' E 174°51'411.6
2018-Nov-01 14:30S 41°16' E 174°47'0 0.0
2018-Nov-01 14:00S 41°16' E 174°47'0 0.0
2018-Nov-01 13:30S 41°16' E 174°47'0 0.0
2018-Nov-01 13:03S 41°16' E 174°47'0 0.0
2018-Nov-01 13:00S 41°16' E 174°47'0 0.0
2018-Nov-01 12:30S 41°16' E 174°47'4 9.6
2018-Nov-01 12:03S 41°19' E 174°51'318.4
2018-Nov-01 11:54S 41°22' E 174°50'615.8
2018-Nov-01 11:30S 41°23' E 174°42'817.2
2018-Nov-01 11:03S 41°21' E 174°33'118.0
2018-Nov-01 11:00S 41°20' E 174°32'917.5
2018-Nov-01 10:30S 41°15' E 174°22'612.3
2018-Nov-01 10:03S 41°14' E 174°15'114.4
2018-Nov-01 10:00S 41°14' E 174°14'612.7
2018-Nov-01 09:30S 41°14' E 174°06'510.6
2018-Nov-01 09:03S 41°17' E 174°00'0 0.0
2018-Nov-01 09:01S 41°17' E 174°00'0 0.0
2018-Nov-01 08:30S 41°17' E 174°00'0 0.0
2018-Nov-01 08:03S 41°17' E 174°00'0 0.0
2018-Nov-01 08:00S 41°17' E 174°00'0 0.0
2018-Nov-01 07:30S 41°17' E 174°00'1 3.0
2018-Nov-01 07:03S 41°16' E 174°01'115.5
2018-Nov-01 07:00S 41°15' E 174°02'611.8
2018-Nov-01 06:31S 41°15' E 174°09'613.2
2018-Nov-01 06:03S 41°13' E 174°17'113.0
2018-Nov-01 06:01S 41°13' E 174°18'917.2
2018-Nov-01 05:31S 41°18' E 174°27'817.9
2018-Nov-01 05:04S 41°23' E 174°36'117.4
2018-Nov-01 05:01S 41°23' E 174°37'713.2
2018-Nov-01 04:31S 41°24' E 174°45'814.7
2018-Nov-01 03:59S 41°17' E 174°51'3 6.6
2018-Nov-01 03:30S 41°16' E 174°47'0 0.0
2018-Nov-01 03:04S 41°16' E 174°47'0 0.0
2018-Nov-01 03:00S 41°16' E 174°47'0 0.0
2018-Nov-01 02:30S 41°16' E 174°47'  
Track history (hours):
 
Tides and Currents Weather Stations Pressure Air Temp Water Temp Dewpoint Dewpoint Depression Visibility Wind Speed Wind Dir Waves Ship Positions

Dawn Merchant

Operator: Norfolk Line

Last reported at 2018-Nov-11 02:29 UTC. Time now 2018-Nov-14 03:35 UTC.
Position S 41°16' E 174°47'.

Length 180 m; draft 5.8 m.

Type: Passenger vessel. MMSI: 232197000.

Date/timePositionNaut miles runAvg speedWind from/ knotsBaromVisibWave heightAir tempDewpointWater temp
2018-Nov-11 02:29S 41°16' E 174°47'0 0.0
2018-Nov-11 01:47S 41°16' E 174°47'0 0.0
2018-Nov-11 01:10S 41°16' E 174°47'0 0.0
2018-Nov-11 00:58S 41°16' E 174°47'0 0.0
2018-Nov-11 00:28S 41°16' E 174°47'0 0.0
2018-Nov-10 23:58S 41°16' E 174°47'0 0.0
2018-Nov-10 23:21S 41°16' E 174°47'0 0.0
2018-Nov-10 22:57S 41°16' E 174°47'0 0.0
2018-Nov-10 22:27S 41°16' E 174°47'0 0.0
2018-Nov-10 21:56S 41°16' E 174°47'0 0.0
2018-Nov-10 21:32S 41°16' E 174°47'0 0.0
2018-Nov-10 21:02S 41°16' E 174°47'0 0.0
2018-Nov-10 20:26S 41°16' E 174°47'1 2.5
2018-Nov-10 20:00S 41°16' E 174°49'1 1.0
2018-Nov-10 19:31S 41°16' E 174°49'0 0.1
2018-Nov-10 19:01S 41°16' E 174°49'0 0.0
2018-Nov-10 18:30S 41°16' E 174°49'0 0.0
2018-Nov-10 17:57S 41°16' E 174°49'0 0.0
2018-Nov-10 17:12S 41°16' E 174°49'0 0.0
2018-Nov-10 17:00S 41°16' E 174°49'0 0.0
2018-Nov-10 16:32S 41°16' E 174°49'0 0.0
2018-Nov-10 16:02S 41°16' E 174°49'0 0.0
2018-Nov-10 15:32S 41°16' E 174°49'0 0.0
2018-Nov-10 15:01S 41°16' E 174°49'0 0.7
2018-Nov-10 14:32S 41°16' E 174°49'1 1.9
2018-Nov-10 13:51S 41°16' E 174°47'0 0.0
2018-Nov-10 13:32S 41°16' E 174°47'0 0.0
2018-Nov-10 13:02S 41°16' E 174°47'0 0.4
2018-Nov-10 12:33S 41°16' E 174°47'610.8
2018-Nov-10 11:59S 41°22' E 174°50'716.6
2018-Nov-10 11:32S 41°23' E 174°41'1019.1
2018-Nov-10 11:02S 41°19' E 174°29'918.1
2018-Nov-10 10:32S 41°13' E 174°20'713.1
2018-Nov-10 10:03S 41°15' E 174°11'612.1
2018-Nov-10 09:32S 41°15' E 174°03'3 6.3
2018-Nov-10 09:02S 41°17' E 174°00'0 0.0
2018-Nov-10 08:32S 41°17' E 174°00'0 0.0
2018-Nov-10 08:02S 41°17' E 174°00'0 0.0
2018-Nov-10 07:32S 41°17' E 174°00'0 0.4
2018-Nov-10 07:02S 41°17' E 174°01'510.1
2018-Nov-10 06:32S 41°14' E 174°06'713.3
2018-Nov-10 06:02S 41°14' E 174°15'714.1
2018-Nov-10 05:32S 41°15' E 174°24'816.8
2018-Nov-10 05:02S 41°20' E 174°34'816.6
2018-Nov-10 04:32S 41°23' E 174°44'713.2
2018-Nov-10 03:59S 41°18' E 174°51'3 6.9
2018-Nov-10 03:30S 41°16' E 174°47'0 0.0
2018-Nov-10 03:00S 41°16' E 174°47'0 0.0
2018-Nov-10 02:30S 41°16' E 174°47'0 0.0
2018-Nov-10 01:59S 41°16' E 174°47'0 0.0
2018-Nov-10 01:29S 41°16' E 174°47'0 0.0
2018-Nov-10 01:02S 41°16' E 174°47'0 0.0
2018-Nov-10 00:29S 41°16' E 174°47'0 0.0
2018-Nov-09 23:46S 41°16' E 174°47'0 0.0
2018-Nov-09 23:32S 41°16' E 174°47'4 8.0
2018-Nov-09 22:59S 41°19' E 174°51'614.6
2018-Nov-09 22:32S 41°24' E 174°45'816.2
2018-Nov-09 22:02S 41°21' E 174°35'917.4
2018-Nov-09 21:32S 41°16' E 174°25'713.8
2018-Nov-09 21:02S 41°14' E 174°16'611.7
2018-Nov-09 20:32S 41°14' E 174°08'713.5
2018-Nov-09 20:02S 41°17' E 174°01'0 0.3
2018-Nov-09 19:30S 41°17' E 174°00'0 0.0
2018-Nov-09 19:02S 41°17' E 174°00'0 0.0
2018-Nov-09 18:32S 41°17' E 174°00'0 0.9
2018-Nov-09 18:03S 41°17' E 174°01'713.9
2018-Nov-09 17:33S 41°13' E 174°09'713.2
2018-Nov-09 17:02S 41°13' E 174°18'1019.5
2018-Nov-09 16:32S 41°18' E 174°29'1020.1
2018-Nov-09 16:02S 41°23' E 174°41'916.5
2018-Nov-09 15:31S 41°19' E 174°51'4 9.0
2018-Nov-09 15:02S 41°16' E 174°47'0 0.0
2018-Nov-09 14:27S 41°16' E 174°47'0 0.0
2018-Nov-09 14:02S 41°16' E 174°47'0 0.0
2018-Nov-09 12:46S 41°16' E 174°47'0 0.7
2018-Nov-09 12:32S 41°16' E 174°47'611.4
2018-Nov-09 12:00S 41°22' E 174°50'816.8
2018-Nov-09 11:32S 41°24' E 174°40'917.6
2018-Nov-09 11:02S 41°19' E 174°31'918.0
2018-Nov-09 10:33S 41°14' E 174°21'611.9
2018-Nov-09 10:02S 41°14' E 174°13'612.5
2018-Nov-09 09:32S 41°14' E 174°04'4 7.7
2018-Nov-09 09:02S 41°17' E 174°00'0 0.0
2018-Nov-09 08:33S 41°17' E 174°00'0 0.0
2018-Nov-09 08:03S 41°17' E 174°00'0 0.0
2018-Nov-09 07:33S 41°17' E 174°00'1 2.2
2018-Nov-09 07:03S 41°16' E 174°01'713.3
2018-Nov-09 06:33S 41°14' E 174°09'713.1
2018-Nov-09 06:02S 41°13' E 174°18'917.2
2018-Nov-09 05:32S 41°17' E 174°28'917.5
2018-Nov-09 05:02S 41°22' E 174°38'1015.4
2018-Nov-09 04:22S 41°19' E 174°51'412.5
2018-Nov-09 04:01S 41°16' E 174°47'0 0.3
2018-Nov-09 03:27S 41°16' E 174°47'0 0.0
2018-Nov-09 02:58S 41°16' E 174°47'0 0.0
2018-Nov-09 02:30S 41°16' E 174°47'0 0.0
2018-Nov-09 02:00S 41°16' E 174°47'0 0.0
2018-Nov-09 01:27S 41°16' E 174°47'0 0.0
2018-Nov-09 00:57S 41°16' E 174°47'0 0.0
2018-Nov-09 00:32S 41°16' E 174°47'0 0.0
2018-Nov-09 00:02S 41°16' E 174°47'0 0.0
2018-Nov-08 23:32S 41°16' E 174°47'4 8.3
2018-Nov-08 23:01S 41°19' E 174°51'612.9
2018-Nov-08 22:32S 41°24' E 174°46'815.9
2018-Nov-08 22:02S 41°22' E 174°36'816.2
2018-Nov-08 21:32S 41°17' E 174°27'816.3
2018-Nov-08 21:02S 41°13' E 174°18'713.8
2018-Nov-08 20:32S 41°15' E 174°09'612.3
2018-Nov-08 20:02S 41°16' E 174°01'1 2.6
2018-Nov-08 19:32S 41°17' E 174°00'0 0.0
2018-Nov-08 19:01S 41°17' E 174°00'0 0.0
2018-Nov-08 18:31S 41°17' E 174°00'0 0.0
2018-Nov-08 18:02S 41°17' E 174°00'3 6.8
2018-Nov-08 17:32S 41°15' E 174°03'713.4
2018-Nov-08 17:02S 41°14' E 174°12'714.7
2018-Nov-08 16:32S 41°14' E 174°22'917.4
2018-Nov-08 16:02S 41°19' E 174°32'917.8
2018-Nov-08 15:33S 41°23' E 174°43'813.4
2018-Nov-08 14:55S 41°17' E 174°50'3 6.9
2018-Nov-08 14:32S 41°16' E 174°47'0 0.0
2018-Nov-08 14:02S 41°16' E 174°47'0 0.0
2018-Nov-08 13:22S 41°16' E 174°47'0 0.0
2018-Nov-08 12:57S 41°16' E 174°47'0 0.0
2018-Nov-08 12:32S 41°16' E 174°47'4 7.8
2018-Nov-08 11:58S 41°19' E 174°51'615.0
2018-Nov-08 11:32S 41°24' E 174°45'1020.3
2018-Nov-08 11:02S 41°20' E 174°32'1019.0
2018-Nov-08 10:32S 41°15' E 174°21'713.1
2018-Nov-08 10:02S 41°15' E 174°13'713.1
2018-Nov-08 09:32S 41°15' E 174°04'4 6.8
2018-Nov-08 09:00S 41°17' E 174°00'0 0.0
2018-Nov-08 08:32S 41°17' E 174°00'0 0.0
2018-Nov-08 08:02S 41°17' E 174°00'0 0.0
2018-Nov-08 07:32S 41°17' E 174°00'0 0.3
2018-Nov-08 07:00S 41°17' E 174°01'511.4
2018-Nov-08 06:32S 41°14' E 174°06'713.3
2018-Nov-08 06:02S 41°14' E 174°15'713.5
2018-Nov-08 05:32S 41°15' E 174°24'815.5
2018-Nov-08 05:02S 41°19' E 174°33'917.6
2018-Nov-08 04:32S 41°23' E 174°43'813.2
2018-Nov-08 03:57S 41°17' E 174°50'3 5.4
2018-Nov-08 03:28S 41°16' E 174°47'0 0.0
2018-Nov-08 02:57S 41°16' E 174°47'0 0.0
2018-Nov-08 02:30S 41°16' E 174°47'0 0.0
2018-Nov-08 01:57S 41°16' E 174°47'0 0.0
2018-Nov-08 01:30S 41°16' E 174°47'0 0.0
2018-Nov-08 01:02S 41°16' E 174°47'0 0.0
2018-Nov-08 00:32S 41°16' E 174°47'0 0.0
2018-Nov-08 00:23S 41°16' E 174°47'0 0.0
2018-Nov-07 23:56S 41°16' E 174°47'0 0.0
2018-Nov-07 23:32S 41°16' E 174°47'4 8.0
2018-Nov-07 22:59S 41°19' E 174°51'613.1
2018-Nov-07 22:33S 41°24' E 174°46'816.7
2018-Nov-07 22:03S 41°22' E 174°35'917.6
2018-Nov-07 21:33S 41°17' E 174°26'714.8
2018-Nov-07 21:03S 41°14' E 174°17'612.8
2018-Nov-07 20:32S 41°14' E 174°08'713.5
2018-Nov-07 20:02S 41°17' E 174°00'0 0.0
2018-Nov-07 19:31S 41°17' E 174°00'0 0.0
2018-Nov-07 19:00S 41°17' E 174°00'0 0.0
2018-Nov-07 18:33S 41°17' E 174°00'4 8.4
2018-Nov-07 18:03S 41°14' E 174°05'713.8
2018-Nov-07 17:33S 41°14' E 174°14'815.3
2018-Nov-07 17:03S 41°15' E 174°24'1020.9
2018-Nov-07 16:33S 41°21' E 174°36'1214.6
2018-Nov-07 15:44S 41°17' E 174°50'211.9
2018-Nov-07 15:32S 41°16' E 174°47'0 0.3
2018-Nov-07 15:01S 41°16' E 174°47'0 0.0
2018-Nov-07 14:32S 41°16' E 174°47'0 0.0
2018-Nov-07 14:01S 41°16' E 174°47'0 0.0
2018-Nov-07 13:32S 41°16' E 174°47'0 0.0
2018-Nov-07 13:02S 41°16' E 174°47'0 0.3
2018-Nov-07 12:32S 41°16' E 174°47'610.4
2018-Nov-07 11:57S 41°22' E 174°50'717.4
2018-Nov-07 11:33S 41°23' E 174°41'1121.3
2018-Nov-07 11:03S 41°18' E 174°29'918.3
2018-Nov-07 10:33S 41°13' E 174°19'815.2
2018-Nov-07 10:03S 41°15' E 174°09'612.0
2018-Nov-07 09:32S 41°16' E 174°01'1 2.8
2018-Nov-07 09:02S 41°17' E 174°00'0 0.0
2018-Nov-07 08:32S 41°17' E 174°00'0 0.0
2018-Nov-07 08:02S 41°17' E 174°00'0 0.0
2018-Nov-07 07:32S 41°17' E 174°00'2 3.2
2018-Nov-07 07:02S 41°16' E 174°01'612.3
2018-Nov-07 06:32S 41°14' E 174°09'714.9
2018-Nov-07 06:02S 41°13' E 174°19'816.1
2018-Nov-07 05:32S 41°17' E 174°28'917.3
2018-Nov-07 05:02S 41°22' E 174°38'1113.1
2018-Nov-07 04:13S 41°17' E 174°51'3 0.6
2018-Nov-06 23:25S 41°16' E 174°47'0 1.1
2018-Nov-06 23:03S 41°16' E 174°48'110.6
2018-Nov-06 23:00S 41°16' E 174°48'9 9.4
2018-Nov-06 22:01S 41°23' E 174°39'918.3
2018-Nov-06 21:31S 41°18' E 174°29'817.8
2018-Nov-06 21:04S 41°14' E 174°20'117.7
2018-Nov-06 21:01S 41°13' E 174°20'714.4
2018-Nov-06 20:31S 41°15' E 174°10'612.9
2018-Nov-06 20:03S 41°15' E 174°03'114.6
2018-Nov-06 20:01S 41°15' E 174°02'2 4.0
2018-Nov-06 19:30S 41°17' E 174°00'0 0.0
2018-Nov-06 19:03S 41°17' E 174°00'0 0.0
2018-Nov-06 19:00S 41°17' E 174°00'0 0.0
2018-Nov-06 18:30S 41°17' E 174°00'0 0.0
2018-Nov-06 18:03S 41°17' E 174°00'0 0.0
2018-Nov-06 18:00S 41°17' E 174°00'4 8.0
2018-Nov-06 17:30S 41°14' E 174°04'612.5
2018-Nov-06 17:03S 41°14' E 174°12'116.4
2018-Nov-06 17:00S 41°14' E 174°13'714.1
2018-Nov-06 16:30S 41°15' E 174°22'715.9
2018-Nov-06 16:03S 41°18' E 174°30'115.9
2018-Nov-06 16:00S 41°19' E 174°31'816.3
2018-Nov-06 15:30S 41°23' E 174°41'814.9
2018-Nov-06 14:56S 41°19' E 174°51'410.1
2018-Nov-06 14:30S 41°16' E 174°47'0 0.0
2018-Nov-06 14:03S 41°16' E 174°47'0 0.0
2018-Nov-06 13:59S 41°16' E 174°47'0 0.0
2018-Nov-06 13:31S 41°16' E 174°47'0 0.0
2018-Nov-06 13:03S 41°16' E 174°47'0 0.0
2018-Nov-06 13:00S 41°16' E 174°47'0 0.0
2018-Nov-06 12:30S 41°16' E 174°47'3 6.1
2018-Nov-06 12:03S 41°17' E 174°51'115.0
2018-Nov-06 11:59S 41°17' E 174°51'713.9
2018-Nov-06 11:30S 41°24' E 174°48'818.3
2018-Nov-06 11:03S 41°22' E 174°37'121.1
2018-Nov-06 11:00S 41°22' E 174°36'918.5
2018-Nov-06 10:30S 41°17' E 174°25'715.4
2018-Nov-06 10:03S 41°13' E 174°18'117.7
2018-Nov-06 10:00S 41°14' E 174°17'713.6
2018-Nov-06 09:30S 41°14' E 174°08'613.6
2018-Nov-06 09:03S 41°17' E 174°01'0 4.0
2018-Nov-06 09:00S 41°17' E 174°00'0 0.0
2018-Nov-06 08:30S 41°17' E 174°00'0 0.0
2018-Nov-06 08:03S 41°17' E 174°00'0 0.0
2018-Nov-06 08:00S 41°17' E 174°00'0 0.0
2018-Nov-06 07:30S 41°17' E 174°00'0 0.2
2018-Nov-06 07:03S 41°17' E 174°00'0 1.3
2018-Nov-06 07:00S 41°17' E 174°01'611.4
2018-Nov-06 06:30S 41°14' E 174°07'612.9
2018-Nov-06 06:03S 41°14' E 174°15'114.9
2018-Nov-06 06:00S 41°14' E 174°15'713.3
2018-Nov-06 05:30S 41°15' E 174°24'715.8
2018-Nov-06 05:03S 41°19' E 174°32'116.9
2018-Nov-06 05:00S 41°20' E 174°33'918.1
2018-Nov-06 04:30S 41°23' E 174°44'714.0
2018-Nov-06 04:00S 41°17' E 174°51'3 5.8
2018-Nov-06 03:30S 41°16' E 174°47'0 0.0
2018-Nov-06 03:03S 41°16' E 174°47'0 0.0
2018-Nov-06 03:00S 41°16' E 174°47'0 0.0
2018-Nov-06 02:30S 41°16' E 174°47'0 0.0
2018-Nov-06 02:03S 41°16' E 174°47'0 0.0
2018-Nov-06 02:00S 41°16' E 174°47'0 0.0
2018-Nov-06 01:30S 41°16' E 174°47'0 0.0
2018-Nov-06 01:03S 41°16' E 174°47'0 0.0
2018-Nov-05 23:30S 41°16' E 174°47'2 5.1
2018-Nov-05 23:03S 41°16' E 174°50'115.9
2018-Nov-05 23:00S 41°17' E 174°51'714.2
2018-Nov-05 22:30S 41°23' E 174°48'817.5
2018-Nov-05 22:03S 41°23' E 174°38'118.5
2018-Nov-05 22:00S 41°22' E 174°37'816.5
2018-Nov-05 21:30S 41°18' E 174°27'715.4
2018-Nov-05 21:03S 41°13' E 174°20'118.7
2018-Nov-05 21:00S 41°13' E 174°19'815.3
2018-Nov-05 20:31S 41°15' E 174°09'612.6
2018-Nov-05 20:03S 41°15' E 174°02'115.2
2018-Nov-05 20:00S 41°16' E 174°01'1 2.7
2018-Nov-05 19:28S 41°17' E 174°00'0 0.0
2018-Nov-05 19:01S 41°17' E 174°00'0 0.0
2018-Nov-05 18:58S 41°17' E 174°00'0 0.0
2018-Nov-05 18:30S 41°17' E 174°00'0 0.0
2018-Nov-05 18:03S 41°17' E 174°00'0 0.0
2018-Nov-05 18:00S 41°17' E 174°00'1 1.7
2018-Nov-05 17:31S 41°16' E 174°01'613.7
2018-Nov-05 17:04S 41°14' E 174°08'113.4
2018-Nov-05 17:00S 41°14' E 174°09'612.9
2018-Nov-05 16:30S 41°13' E 174°18'614.2
2018-Nov-05 16:03S 41°16' E 174°25'113.9
2018-Nov-05 16:00S 41°16' E 174°26'714.6
2018-Nov-05 15:30S 41°20' E 174°34'817.4
2018-Nov-05 15:03S 41°23' E 174°44'117.4
2018-Nov-05 15:00S 41°23' E 174°45'713.5
2018-Nov-05 14:30S 41°17' E 174°51'3 6.6
2018-Nov-05 14:03S 41°16' E 174°47'0 0.0
2018-Nov-05 13:30S 41°16' E 174°47'0 0.0
2018-Nov-05 13:03S 41°16' E 174°47'0 0.0
2018-Nov-05 13:00S 41°16' E 174°47'0 0.0
2018-Nov-05 12:30S 41°16' E 174°47'0 0.0
2018-Nov-05 12:03S 41°16' E 174°47'0 0.0
2018-Nov-05 12:00S 41°16' E 174°47'0 0.0
2018-Nov-05 11:30S 41°16' E 174°47'0 0.0
2018-Nov-05 11:03S 41°16' E 174°47'0 0.0
2018-Nov-05 11:00S 41°16' E 174°47'0 0.0
2018-Nov-05 10:30S 41°16' E 174°47'0 0.0
2018-Nov-05 10:03S 41°16' E 174°47'0 0.0
2018-Nov-05 10:00S 41°16' E 174°47'0 0.0
2018-Nov-05 09:30S 41°16' E 174°47'0 0.0
2018-Nov-05 09:03S 41°16' E 174°47'0 0.0
2018-Nov-05 09:00S 41°16' E 174°47'0 0.0
2018-Nov-05 08:30S 41°16' E 174°47'0 0.0
2018-Nov-05 08:03S 41°16' E 174°47'0 0.0
2018-Nov-05 08:00S 41°16' E 174°47'1 1.3
2018-Nov-05 07:30S 41°16' E 174°48'0 0.7
2018-Nov-05 07:03S 41°17' E 174°48'0 0.4
2018-Nov-05 07:00S 41°17' E 174°48'0 0.1
2018-Nov-05 06:30S 41°17' E 174°48'0 0.1
2018-Nov-05 06:03S 41°17' E 174°48'0 0.4
2018-Nov-05 06:00S 41°17' E 174°48'0 0.1
2018-Nov-05 05:30S 41°17' E 174°48'0 0.1
2018-Nov-05 05:03S 41°17' E 174°48'0 0.3
2018-Nov-05 05:00S 41°17' E 174°48'0 0.1
2018-Nov-05 04:30S 41°17' E 174°48'1 1.4
2018-Nov-05 04:03S 41°16' E 174°47'0 4.4
2018-Nov-05 04:00S 41°16' E 174°47'0 0.1
2018-Nov-05 03:25S 41°16' E 174°47'0 0.0
2018-Nov-05 02:59S 41°16' E 174°47'0 0.0
2018-Nov-05 02:29S 41°16' E 174°47'0 0.0
2018-Nov-05 01:59S 41°16' E 174°47'0 0.0
2018-Nov-05 01:28S 41°16' E 174°47'0 0.0
2018-Nov-05 00:52S 41°16' E 174°47'0 0.0
2018-Nov-05 00:28S 41°16' E 174°47'0 0.0
2018-Nov-04 23:57S 41°16' E 174°47'0 0.0
2018-Nov-04 23:21S 41°16' E 174°47'0 0.0
2018-Nov-04 22:51S 41°16' E 174°47'0 0.0
2018-Nov-04 22:30S 41°16' E 174°47'0 0.0
2018-Nov-04 22:02S 41°16' E 174°47'0 0.0
2018-Nov-04 21:56S 41°16' E 174°47'0 0.0
2018-Nov-04 21:26S 41°16' E 174°47'0 0.0
2018-Nov-04 21:02S 41°16' E 174°47'0 0.0
2018-Nov-04 20:37S 41°16' E 174°47'0 0.0
2018-Nov-04 20:25S 41°16' E 174°47'1 2.7
2018-Nov-04 20:03S 41°17' E 174°48'0 5.4
2018-Nov-04 20:00S 41°17' E 174°48'0 0.4
2018-Nov-04 19:25S 41°17' E 174°48'0 0.0
2018-Nov-04 19:00S 41°17' E 174°48'0 0.0
2018-Nov-04 18:30S 41°17' E 174°48'0 0.0
2018-Nov-04 18:03S 41°17' E 174°48'0 0.0
2018-Nov-04 18:00S 41°17' E 174°48'0 0.1
2018-Nov-04 17:02S 41°17' E 174°48'0 0.1
2018-Nov-04 16:59S 41°17' E 174°48'1 2.0
2018-Nov-04 16:30S 41°16' E 174°47'0 0.0
2018-Nov-04 16:03S 41°16' E 174°47'0 0.0
2018-Nov-04 15:59S 41°16' E 174°47'0 0.1
2018-Nov-04 15:29S 41°16' E 174°47'6 8.9
2018-Nov-04 14:46S 41°22' E 174°50'311.4
2018-Nov-04 14:30S 41°24' E 174°47'613.7
2018-Nov-04 14:04S 41°23' E 174°39'111.2
2018-Nov-04 14:01S 41°23' E 174°38'612.9
2018-Nov-04 13:30S 41°19' E 174°31'613.1
2018-Nov-04 13:04S 41°16' E 174°24'112.8
2018-Nov-04 13:01S 41°15' E 174°24'611.2
2018-Nov-04 12:31S 41°14' E 174°17'612.5
2018-Nov-04 12:03S 41°14' E 174°09'112.6
2018-Nov-04 12:00S 41°14' E 174°09'612.6
2018-Nov-04 11:31S 41°16' E 174°01'1 2.6
2018-Nov-04 11:04S 41°17' E 174°00'0 0.0
2018-Nov-04 11:01S 41°17' E 174°00'0 0.0
2018-Nov-04 10:30S 41°17' E 174°00'1 2.9
2018-Nov-04 10:03S 41°16' E 174°01'115.1
2018-Nov-04 10:00S 41°15' E 174°02'612.1
2018-Nov-04 09:31S 41°15' E 174°10'612.8
2018-Nov-04 09:03S 41°13' E 174°17'113.1
2018-Nov-04 09:00S 41°13' E 174°18'715.0
2018-Nov-04 08:30S 41°17' E 174°26'715.8
2018-Nov-04 08:03S 41°20' E 174°34'115.2
2018-Nov-04 08:00S 41°21' E 174°35'714.4
2018-Nov-04 07:30S 41°23' E 174°45'713.2
2018-Nov-04 06:58S 41°17' E 174°50'3 4.8
2018-Nov-04 06:25S 41°16' E 174°47'0 0.0
2018-Nov-04 06:01S 41°16' E 174°47'0 0.0
2018-Nov-04 05:55S 41°16' E 174°47'0 0.5
2018-Nov-04 05:31S 41°16' E 174°47'0 0.0
2018-Nov-04 05:03S 41°16' E 174°47'0 0.0
2018-Nov-04 05:00S 41°16' E 174°47'0 0.0
2018-Nov-04 04:30S 41°16' E 174°47'0 0.0
2018-Nov-04 04:03S 41°16' E 174°47'0 0.0
2018-Nov-04 04:00S 41°16' E 174°47'0 0.0
2018-Nov-04 03:29S 41°16' E 174°47'0 0.0
2018-Nov-04 03:02S 41°16' E 174°47'0 0.0
2018-Nov-04 02:59S 41°16' E 174°47'0 0.0
2018-Nov-04 02:23S 41°16' E 174°47'0 0.0
2018-Nov-04 02:02S 41°16' E 174°47'0 0.0
2018-Nov-04 01:55S 41°16' E 174°47'0 0.0
2018-Nov-04 01:28S 41°16' E 174°47'0 0.0
2018-Nov-04 01:01S 41°16' E 174°47'0 0.0
2018-Nov-04 00:58S 41°16' E 174°47'0 0.0
2018-Nov-04 00:28S 41°16' E 174°47'0 0.0
2018-Nov-03 23:57S 41°16' E 174°47'0 0.0
2018-Nov-03 23:27S 41°16' E 174°47'0 0.0
2018-Nov-03 22:57S 41°16' E 174°47'0 0.0
2018-Nov-03 22:26S 41°16' E 174°47'0 0.0
2018-Nov-03 20:28S 41°16' E 174°47'0 0.0
2018-Nov-03 20:01S 41°16' E 174°47'0 0.0
2018-Nov-03 19:58S 41°16' E 174°47'0 0.0
2018-Nov-03 19:28S 41°16' E 174°47'0 0.0
2018-Nov-03 19:00S 41°16' E 174°47'0 0.0
2018-Nov-03 18:30S 41°16' E 174°47'0 0.0
2018-Nov-03 18:03S 41°16' E 174°47'0 0.0
2018-Nov-03 18:00S 41°16' E 174°47'0 0.0
2018-Nov-03 17:29S 41°16' E 174°47'0 0.0
2018-Nov-03 16:59S 41°16' E 174°47'0 0.0
2018-Nov-03 16:29S 41°16' E 174°47'0 0.0
2018-Nov-03 15:59S 41°16' E 174°47'0 0.0
2018-Nov-03 15:28S 41°16' E 174°47'0 0.0
2018-Nov-03 15:01S 41°16' E 174°47'0 0.0
2018-Nov-03 14:58S 41°16' E 174°47'0 0.0
2018-Nov-03 14:28S 41°16' E 174°47'0 0.0
2018-Nov-03 14:03S 41°16' E 174°47'0 0.0
2018-Nov-03 14:00S 41°16' E 174°47'0 0.4
2018-Nov-03 13:30S 41°16' E 174°47'0 0.0
2018-Nov-03 12:54S 41°16' E 174°47'0 0.0
2018-Nov-03 12:30S 41°16' E 174°47'3 6.6
2018-Nov-03 12:03S 41°17' E 174°51'1 0.1
2018-Nov-03 03:57S 41°17' E 174°50'3 5.8
2018-Nov-03 03:30S 41°16' E 174°47'0 0.0
2018-Nov-03 03:03S 41°16' E 174°47'0 0.0
2018-Nov-03 03:00S 41°16' E 174°47'0 0.0
2018-Nov-03 02:30S 41°16' E 174°47'0 0.0
2018-Nov-03 02:03S 41°16' E 174°47'0 0.0
2018-Nov-03 02:00S 41°16' E 174°47'0 0.0
2018-Nov-03 01:30S 41°16' E 174°47'0 0.0
2018-Nov-03 01:03S 41°16' E 174°47'0 0.0
2018-Nov-03 01:00S 41°16' E 174°47'0 0.0
2018-Nov-03 00:30S 41°16' E 174°47'0 0.0
2018-Nov-03 00:03S 41°16' E 174°47'0 0.0
2018-Nov-03 00:00S 41°16' E 174°47'0 0.0
2018-Nov-02 23:30S 41°16' E 174°47'2 5.3
2018-Nov-02 23:03S 41°16' E 174°50'115.3
2018-Nov-02 22:59S 41°17' E 174°51'18 2.5
2018-Nov-02 15:49S 41°17' E 174°28'413.1
2018-Nov-02 15:31S 41°19' E 174°32'715.7
2018-Nov-02 15:04S 41°23' E 174°41'116.7
2018-Nov-02 15:01S 41°23' E 174°42'814.5
2018-Nov-02 14:28S 41°19' E 174°51'4 9.5
2018-Nov-02 14:00S 41°16' E 174°47'0 0.0
2018-Nov-02 13:26S 41°16' E 174°47'0 0.0
2018-Nov-02 13:03S 41°16' E 174°47'0 0.0
2018-Nov-02 13:00S 41°16' E 174°47'0 0.0
2018-Nov-02 12:30S 41°16' E 174°47'2 3.9
2018-Nov-02 12:03S 41°16' E 174°49'114.9
2018-Nov-02 11:59S 41°17' E 174°51'714.4
2018-Nov-02 11:31S 41°23' E 174°49'714.7
2018-Nov-02 11:04S 41°23' E 174°41'116.1
2018-Nov-02 11:00S 41°23' E 174°40'917.9
2018-Nov-02 10:30S 41°19' E 174°29'817.2
2018-Nov-02 10:03S 41°14' E 174°21'116.0
2018-Nov-02 10:01S 41°14' E 174°20'713.5
2018-Nov-02 09:30S 41°15' E 174°11'612.8
2018-Nov-02 09:03S 41°15' E 174°03'115.1
2018-Nov-02 09:00S 41°15' E 174°02'3 5.2
2018-Nov-02 08:30S 41°17' E 174°00'0 0.0
2018-Nov-02 08:03S 41°17' E 174°00'0 0.0
2018-Nov-02 08:00S 41°17' E 174°00'0 0.0
2018-Nov-02 07:30S 41°17' E 174°00'0 0.3
2018-Nov-02 07:03S 41°17' E 174°01'0 0.4
2018-Nov-02 07:00S 41°17' E 174°01'612.3
2018-Nov-02 06:31S 41°14' E 174°07'511.9
2018-Nov-02 06:03S 41°14' E 174°15'113.6
2018-Nov-02 06:00S 41°14' E 174°15'612.4
2018-Nov-02 05:31S 41°15' E 174°24'817.3
2018-Nov-02 05:03S 41°19' E 174°32'117.4
2018-Nov-02 05:01S 41°20' E 174°33'816.7
2018-Nov-02 04:30S 41°23' E 174°44'813.4
2018-Nov-02 03:56S 41°17' E 174°50'2 3.8
2018-Nov-02 03:21S 41°16' E 174°47'0 0.0
2018-Nov-02 03:03S 41°16' E 174°47'0 0.0
2018-Nov-02 02:51S 41°16' E 174°47'0 0.0
2018-Nov-02 02:21S 41°16' E 174°47'0 0.0
2018-Nov-02 01:56S 41°16' E 174°47'0 0.0
2018-Nov-02 01:26S 41°16' E 174°47'0 0.0
2018-Nov-02 01:02S 41°16' E 174°47'0 0.0
2018-Nov-02 00:50S 41°16' E 174°47'0 0.0
2018-Nov-02 00:32S 41°16' E 174°47'0 0.0
2018-Nov-02 00:10S 41°16' E 174°47'0 0.0
2018-Nov-02 00:01S 41°16' E 174°47'0 0.0
2018-Nov-01 23:52S 41°16' E 174°47'0 0.0
2018-Nov-01 23:30S 41°16' E 174°47'4 7.7
2018-Nov-01 22:56S 41°19' E 174°51'512.4
2018-Nov-01 22:30S 41°23' E 174°47'716.6
2018-Nov-01 22:03S 41°23' E 174°37'116.8
2018-Nov-01 22:00S 41°22' E 174°36'714.4
2018-Nov-01 21:30S 41°20' E 174°27'715.5
2018-Nov-01 21:03S 41°15' E 174°21'117.4
2018-Nov-01 21:00S 41°14' E 174°20'713.3
2018-Nov-01 20:30S 41°15' E 174°12'612.9
2018-Nov-01 20:03S 41°15' E 174°04'115.0
2018-Nov-01 20:00S 41°15' E 174°03'3 5.7
2018-Nov-01 19:31S 41°17' E 174°00'0 0.0
2018-Nov-01 19:04S 41°17' E 174°00'0 0.0
2018-Nov-01 19:01S 41°17' E 174°00'0 0.0
2018-Nov-01 18:31S 41°17' E 174°00'0 0.0
2018-Nov-01 18:04S 41°17' E 174°00'0 0.0
2018-Nov-01 18:01S 41°17' E 174°00'2 3.4
2018-Nov-01 17:30S 41°16' E 174°02'613.6
2018-Nov-01 17:03S 41°14' E 174°09'113.9
2018-Nov-01 17:01S 41°14' E 174°09'612.7
2018-Nov-01 16:31S 41°13' E 174°18'716.1
2018-Nov-01 16:04S 41°16' E 174°26'119.0
2018-Nov-01 16:01S 41°17' E 174°27'1019.8
2018-Nov-01 15:31S 41°22' E 174°38'1015.9
2018-Nov-01 14:53S 41°19' E 174°51'411.6
2018-Nov-01 14:30S 41°16' E 174°47'0 0.0
2018-Nov-01 14:00S 41°16' E 174°47'0 0.0
2018-Nov-01 13:30S 41°16' E 174°47'0 0.0
2018-Nov-01 13:03S 41°16' E 174°47'0 0.0
2018-Nov-01 13:00S 41°16' E 174°47'0 0.0
2018-Nov-01 12:30S 41°16' E 174°47'4 9.6
2018-Nov-01 12:03S 41°19' E 174°51'318.4
2018-Nov-01 11:54S 41°22' E 174°50'615.8
2018-Nov-01 11:30S 41°23' E 174°42'817.2
2018-Nov-01 11:03S 41°21' E 174°33'118.0
2018-Nov-01 11:00S 41°20' E 174°32'917.5
2018-Nov-01 10:30S 41°15' E 174°22'612.3
2018-Nov-01 10:03S 41°14' E 174°15'114.4
2018-Nov-01 10:00S 41°14' E 174°14'612.7
2018-Nov-01 09:30S 41°14' E 174°06'510.6
2018-Nov-01 09:03S 41°17' E 174°00'0 0.0
2018-Nov-01 09:01S 41°17' E 174°00'0 0.0
2018-Nov-01 08:30S 41°17' E 174°00'0 0.0
2018-Nov-01 08:03S 41°17' E 174°00'0 0.0
2018-Nov-01 08:00S 41°17' E 174°00'0 0.0
2018-Nov-01 07:30S 41°17' E 174°00'1 3.0
2018-Nov-01 07:03S 41°16' E 174°01'115.5
2018-Nov-01 07:00S 41°15' E 174°02'611.8
2018-Nov-01 06:31S 41°15' E 174°09'613.2
2018-Nov-01 06:03S 41°13' E 174°17'113.0
2018-Nov-01 06:01S 41°13' E 174°18'917.2
2018-Nov-01 05:31S 41°18' E 174°27'817.9
2018-Nov-01 05:04S 41°23' E 174°36'117.4
2018-Nov-01 05:01S 41°23' E 174°37'713.2
2018-Nov-01 04:31S 41°24' E 174°45'814.7
2018-Nov-01 03:59S 41°17' E 174°51'3 6.6
2018-Nov-01 03:30S 41°16' E 174°47'0 0.0
2018-Nov-01 03:04S 41°16' E 174°47'0 0.0
2018-Nov-01 03:00S 41°16' E 174°47'0 0.0
2018-Nov-01 02:30S 41°16' E 174°47'  

Dump ship's entire track history